createdAt,value
2019-06-20T00:00:42.491Z,14.63
2019-06-20T00:03:13.627Z,14.05
2019-06-20T00:05:44.790Z,15.00
2019-06-20T00:08:15.878Z,17.37
2019-06-20T00:10:47.040Z,19.15
2019-06-20T00:13:18.130Z,19.05
2019-06-20T00:15:49.382Z,20.27
2019-06-20T00:18:20.498Z,14.78
2019-06-20T00:20:52.031Z,14.83
2019-06-20T00:23:23.137Z,16.25
2019-06-20T00:25:54.293Z,14.63
2019-06-20T00:28:25.385Z,15.83
2019-06-20T00:30:56.532Z,15.60
2019-06-20T00:33:27.616Z,15.72
2019-06-20T00:35:58.748Z,16.60
2019-06-20T00:38:29.839Z,17.45
2019-06-20T00:41:00.998Z,16.50
2019-06-20T00:43:32.078Z,17.10
2019-06-20T00:46:03.267Z,15.85
2019-06-20T00:48:34.427Z,16.45
2019-06-20T00:51:05.597Z,16.55
2019-06-20T00:53:36.704Z,15.45
2019-06-20T00:56:07.872Z,16.67
2019-06-20T00:58:39.041Z,14.75
2019-06-20T01:01:10.149Z,15.98
2019-06-20T01:03:41.750Z,15.98
2019-06-20T01:06:12.894Z,16.35
2019-06-20T01:08:43.993Z,16.50
2019-06-20T01:11:15.150Z,17.00
2019-06-20T01:13:46.372Z,17.23
2019-06-20T01:16:17.683Z,17.50
2019-06-20T01:18:49.388Z,18.00
2019-06-20T01:21:20.553Z,18.00
2019-06-20T01:23:51.658Z,16.75
2019-06-20T01:26:22.794Z,18.17
2019-06-20T01:28:53.883Z,17.82
2019-06-20T01:31:25.031Z,18.55
2019-06-20T01:33:56.132Z,18.57
2019-06-20T01:36:27.277Z,19.92
2019-06-20T01:38:58.380Z,18.23
2019-06-20T01:41:29.514Z,19.80
2019-06-20T01:44:00.634Z,19.60
2019-06-20T01:46:32.199Z,18.77
2019-06-20T01:49:03.290Z,19.57
2019-06-20T01:51:34.558Z,19.45
2019-06-20T01:54:05.670Z,19.62
2019-06-20T01:56:36.792Z,18.70
2019-06-20T01:59:07.885Z,19.60
2019-06-20T02:01:39.040Z,19.90
2019-06-20T02:04:10.134Z,18.80
2019-06-20T02:06:41.384Z,18.87
2019-06-20T02:09:12.486Z,18.48
2019-06-20T02:11:43.744Z,18.55
2019-06-20T02:14:14.868Z,18.25
2019-06-20T02:16:46.565Z,17.17
2019-06-20T02:19:17.676Z,19.12
2019-06-20T02:21:48.852Z,18.02
2019-06-20T02:24:19.940Z,17.25
2019-06-20T02:26:51.101Z,17.10
2019-06-20T02:29:22.187Z,16.77
2019-06-20T02:31:53.335Z,15.25
2019-06-20T02:34:24.436Z,15.08
2019-06-20T02:36:55.600Z,14.75
2019-06-20T02:39:26.693Z,15.58
2019-06-20T02:41:57.895Z,15.55
2019-06-20T02:44:30.824Z,17.23
2019-06-20T02:47:01.949Z,17.65
2019-06-20T02:49:33.050Z,17.15
2019-06-20T02:52:05.098Z,16.65
2019-06-20T02:54:36.195Z,17.15
2019-06-20T02:57:07.371Z,16.73
2019-06-20T02:59:38.420Z,15.93
2019-06-20T03:02:09.558Z,16.40
2019-06-20T03:04:40.643Z,16.42
2019-06-20T03:07:11.806Z,16.42
2019-06-20T03:09:42.894Z,16.85
2019-06-20T03:12:14.022Z,15.90
2019-06-20T03:14:45.943Z,15.90
2019-06-20T03:17:17.587Z,15.68
2019-06-20T03:19:48.678Z,16.20
2019-06-20T03:22:19.860Z,15.72
2019-06-20T03:24:51.003Z,16.17
2019-06-20T03:27:22.111Z,15.48
2019-06-20T03:29:53.192Z,15.70
2019-06-20T03:32:24.380Z,15.55
2019-06-20T03:34:55.475Z,15.48
2019-06-20T03:37:26.714Z,16.52
2019-06-20T03:39:57.752Z,15.85
2019-06-20T03:42:29.124Z,15.40
2019-06-20T03:45:02.402Z,16.12
2019-06-20T03:47:32.983Z,16.50
2019-06-20T03:50:07.549Z,16.10
2019-06-20T03:52:38.701Z,16.73
2019-06-20T03:55:10.402Z,15.38
2019-06-20T03:57:41.565Z,16.50
2019-06-20T04:00:13.063Z,16.57
2019-06-20T04:02:44.625Z,16.50
2019-06-20T04:05:15.820Z,15.43
2019-06-20T04:07:46.967Z,15.50
2019-06-20T04:10:18.065Z,15.93
2019-06-20T04:12:49.240Z,17.92
2019-06-20T04:15:20.323Z,17.70
2019-06-20T04:17:52.011Z,16.77
2019-06-20T04:20:23.153Z,16.32
2019-06-20T04:22:54.332Z,16.00
2019-06-20T04:25:25.459Z,22.25
2019-06-20T04:27:56.617Z,21.27
2019-06-20T04:30:27.744Z,18.65
2019-06-20T04:32:58.870Z,16.27
2019-06-20T04:35:29.966Z,15.90
2019-06-20T04:38:01.145Z,15.28
2019-06-20T04:40:32.221Z,14.95
2019-06-20T04:43:03.412Z,15.08
2019-06-20T04:45:42.033Z,13.60
2019-06-20T04:48:13.637Z,13.50
2019-06-20T04:50:44.809Z,13.32
2019-06-20T04:53:15.912Z,13.20
2019-06-20T04:55:47.021Z,11.90
2019-06-20T04:58:18.175Z,9.73
2019-06-20T05:00:49.482Z,10.03
2019-06-20T05:03:20.636Z,9.83
2019-06-20T05:05:51.718Z,9.40
2019-06-20T05:08:22.861Z,10.35
2019-06-20T05:10:54.154Z,10.00
2019-06-20T05:13:25.305Z,8.98
2019-06-20T05:15:56.406Z,8.95
2019-06-20T05:18:27.546Z,8.78
2019-06-20T05:20:58.682Z,9.05
2019-06-20T05:23:29.806Z,8.65
2019-06-20T05:26:00.936Z,8.38
2019-06-20T05:28:33.252Z,8.65
2019-06-20T05:31:04.447Z,7.28
2019-06-20T05:33:35.536Z,7.40
2019-06-20T05:36:06.635Z,8.13
2019-06-20T05:38:37.745Z,7.97
2019-06-20T05:41:08.838Z,7.62
2019-06-20T05:43:39.951Z,7.35
2019-06-20T05:46:11.306Z,7.60
2019-06-20T05:48:43.336Z,6.95
2019-06-20T05:51:14.436Z,7.25
2019-06-20T05:53:45.554Z,7.50
2019-06-20T05:56:16.628Z,7.35
2019-06-20T05:58:47.758Z,6.92
2019-06-20T06:01:18.838Z,7.55
2019-06-20T06:03:49.951Z,6.85
2019-06-20T06:06:21.027Z,7.10
2019-06-20T06:08:52.135Z,6.92
2019-06-20T06:11:23.229Z,7.58
2019-06-20T06:13:54.332Z,6.53
2019-06-20T06:16:28.244Z,7.00
2019-06-20T06:18:58.191Z,6.90
2019-06-20T06:21:29.331Z,6.62
2019-06-20T06:24:00.469Z,7.35
2019-06-20T06:26:31.744Z,6.72
2019-06-20T06:29:03.274Z,6.42
2019-06-20T06:31:34.348Z,6.90
2019-06-20T06:34:05.654Z,7.25
2019-06-20T06:36:36.747Z,6.42
2019-06-20T06:39:11.663Z,6.80
2019-06-20T06:41:42.740Z,6.87
2019-06-20T06:44:13.883Z,6.42
2019-06-20T06:46:53.155Z,5.87
2019-06-20T06:49:17.733Z,6.90
2019-06-20T06:51:48.840Z,6.72
2019-06-20T06:54:19.948Z,6.45
2019-06-20T06:56:51.030Z,6.28
2019-06-20T06:59:22.296Z,6.55
2019-06-20T07:01:53.321Z,6.72
2019-06-20T07:04:24.434Z,6.80
2019-06-20T07:06:55.528Z,6.20
2019-06-20T07:09:26.651Z,6.12
2019-06-20T07:11:57.748Z,5.83
2019-06-20T07:14:29.308Z,20.70
2019-06-20T07:17:00.907Z,6.40
2019-06-20T07:19:32.135Z,6.72
2019-06-20T07:22:03.258Z,6.12
2019-06-20T07:24:34.373Z,5.95
2019-06-20T07:27:05.458Z,6.15
2019-06-20T07:29:36.599Z,5.50
2019-06-20T07:32:07.681Z,5.87
2019-06-20T07:34:38.841Z,5.90
2019-06-20T07:37:09.973Z,5.80
2019-06-20T07:39:41.090Z,5.90
2019-06-20T07:42:12.187Z,5.80
2019-06-20T07:44:43.418Z,5.75
2019-06-20T07:47:17.966Z,5.58
2019-06-20T07:49:47.260Z,4.70
2019-06-20T07:52:18.374Z,5.03
2019-06-20T07:54:49.513Z,5.00
2019-06-20T07:57:20.612Z,4.85
2019-06-20T07:59:51.737Z,5.33
2019-06-20T08:02:22.833Z,4.60
2019-06-20T08:04:53.944Z,4.15
2019-06-20T08:07:25.042Z,4.78
2019-06-20T08:09:56.175Z,6.08
2019-06-20T08:12:27.351Z,4.55
2019-06-20T08:15:13.971Z,4.90
2019-06-20T08:17:35.588Z,4.35
2019-06-20T08:20:09.593Z,3.98
2019-06-20T08:22:41.318Z,4.28
2019-06-20T08:25:14.369Z,4.87
2019-06-20T08:27:57.140Z,4.72
2019-06-20T08:30:36.492Z,5.05
2019-06-20T08:33:12.005Z,5.67
2019-06-20T08:35:42.300Z,4.83
2019-06-20T08:38:13.394Z,5.30
2019-06-20T08:40:44.620Z,5.10
2019-06-20T08:43:15.814Z,4.47
2019-06-20T08:45:47.063Z,9.23
2019-06-20T08:48:18.201Z,5.67
2019-06-20T08:50:49.351Z,5.30
2019-06-20T08:53:20.433Z,4.62
2019-06-20T08:55:51.538Z,4.42
2019-06-20T08:58:23.066Z,7.78
2019-06-20T09:00:55.871Z,6.10
2019-06-20T09:03:26.930Z,4.58
2019-06-20T09:05:58.267Z,4.42
2019-06-20T09:08:29.607Z,4.37
2019-06-20T09:11:01.818Z,4.50
2019-06-20T09:13:32.936Z,4.12
2019-06-20T09:16:04.172Z,4.30
2019-06-20T09:18:39.801Z,4.15
2019-06-20T09:21:10.928Z,4.00
2019-06-20T09:23:42.098Z,4.40
2019-06-20T09:26:13.239Z,4.40
2019-06-20T09:28:44.335Z,4.62
2019-06-20T09:31:15.443Z,4.22
2019-06-20T09:33:46.527Z,4.30
2019-06-20T09:36:17.856Z,4.22
2019-06-20T09:38:49.103Z,4.35
2019-06-20T09:41:20.211Z,4.53
2019-06-20T09:43:52.763Z,5.17
2019-06-20T09:46:23.937Z,5.45
2019-06-20T09:48:55.605Z,5.00
2019-06-20T09:51:26.834Z,4.92
2019-06-20T09:53:58.222Z,5.62
2019-06-20T09:56:29.478Z,5.12
2019-06-20T09:59:00.572Z,4.90
2019-06-20T10:01:31.884Z,5.30
2019-06-20T10:04:03.063Z,5.35
2019-06-20T10:06:34.323Z,5.20
2019-06-20T10:09:08.568Z,5.22
2019-06-20T10:11:39.684Z,5.05
2019-06-20T10:14:10.766Z,5.03
2019-06-20T10:16:45.682Z,5.65
2019-06-20T10:19:14.569Z,5.45
2019-06-20T10:21:46.752Z,5.10
2019-06-20T10:24:18.412Z,5.03
2019-06-20T10:26:49.635Z,5.58
2019-06-20T10:29:22.169Z,4.87
2019-06-20T10:31:53.296Z,4.83
2019-06-20T10:34:24.393Z,5.05
2019-06-20T10:36:56.985Z,5.17
2019-06-20T10:39:28.210Z,5.15
2019-06-20T10:41:59.356Z,5.28
2019-06-20T10:44:30.532Z,4.97
2019-06-20T10:47:01.702Z,5.10
2019-06-20T10:49:32.779Z,5.65
2019-06-20T10:52:04.349Z,6.00
2019-06-20T10:54:37.007Z,5.10
2019-06-20T10:57:08.486Z,5.10
2019-06-20T10:59:39.877Z,4.95
2019-06-20T11:02:12.221Z,5.28
2019-06-20T11:04:44.061Z,14.30
2019-06-20T11:07:15.352Z,7.33
2019-06-20T11:09:47.133Z,7.17
2019-06-20T11:12:18.394Z,6.08
2019-06-20T11:14:49.466Z,5.58
2019-06-20T11:17:20.914Z,5.25
2019-06-20T11:19:52.000Z,6.33
2019-06-20T11:22:23.163Z,5.10
2019-06-20T11:24:54.249Z,6.28
2019-06-20T11:27:25.400Z,5.42
2019-06-20T11:29:56.491Z,5.30
2019-06-20T11:32:27.627Z,5.35
2019-06-20T11:34:58.714Z,5.08
2019-06-20T11:37:29.855Z,6.30
2019-06-20T11:40:00.927Z,6.22
2019-06-20T11:42:32.071Z,6.83
2019-06-20T11:45:03.164Z,6.30
2019-06-20T11:47:35.482Z,5.75
2019-06-20T11:50:10.377Z,6.58
2019-06-20T11:52:45.355Z,6.78
2019-06-20T11:55:15.329Z,6.72
2019-06-20T11:57:46.471Z,6.83
2019-06-20T12:00:18.083Z,7.05
2019-06-20T12:02:50.275Z,7.75
2019-06-20T12:05:23.355Z,6.75
2019-06-20T12:07:54.628Z,10.35
2019-06-20T12:10:25.707Z,6.28
2019-06-20T12:12:57.536Z,6.65
2019-06-20T12:15:28.737Z,6.80
2019-06-20T12:18:00.249Z,6.60
2019-06-20T12:20:31.334Z,6.70
2019-06-20T12:23:02.501Z,6.37
2019-06-20T12:25:33.597Z,6.25
2019-06-20T12:28:04.812Z,7.00
2019-06-20T12:30:35.932Z,6.62
2019-06-20T12:33:07.071Z,6.65
2019-06-20T12:35:39.525Z,7.28
2019-06-20T12:38:15.054Z,7.85
2019-06-20T12:40:46.923Z,7.62
2019-06-20T12:43:18.911Z,7.97
2019-06-20T12:45:51.716Z,7.28
2019-06-20T12:48:23.698Z,8.03
2019-06-20T12:50:55.878Z,7.97
2019-06-20T12:53:29.838Z,7.20
2019-06-20T12:56:01.528Z,7.00
2019-06-20T12:58:37.344Z,6.50
2019-06-20T13:01:10.527Z,6.72
2019-06-20T13:03:42.813Z,7.37
2019-06-20T13:06:14.713Z,5.78
2019-06-20T13:08:47.416Z,6.35
2019-06-20T13:11:22.997Z,5.50
2019-06-20T13:13:54.734Z,6.50
2019-06-20T13:16:31.460Z,6.33
2019-06-20T13:19:02.960Z,5.78
2019-06-20T13:21:35.011Z,6.20
2019-06-20T13:24:07.036Z,6.10
2019-06-20T13:26:40.661Z,5.92
2019-06-20T13:29:12.997Z,5.62
2019-06-20T13:32:00.539Z,5.75
2019-06-20T13:34:20.831Z,6.25
2019-06-20T13:36:54.607Z,6.72
2019-06-20T13:39:27.145Z,6.00
2019-06-20T13:42:06.953Z,7.53
2019-06-20T13:44:42.581Z,5.25
2019-06-20T13:47:15.817Z,4.80
2019-06-20T13:49:48.268Z,5.40
2019-06-20T13:52:20.823Z,5.15
2019-06-20T13:54:52.516Z,5.60
2019-06-20T13:57:24.423Z,5.58
2019-06-20T13:59:56.623Z,5.20
2019-06-20T14:02:28.753Z,5.00
2019-06-20T14:05:01.490Z,4.92
2019-06-20T14:07:33.340Z,5.03
2019-06-20T14:10:07.593Z,5.37
2019-06-20T14:12:44.653Z,6.00
2019-06-20T14:15:18.217Z,5.53
2019-06-20T14:17:50.231Z,5.60
2019-06-20T14:20:23.425Z,5.55
2019-06-20T14:22:54.925Z,6.72
2019-06-20T14:25:26.557Z,5.62
2019-06-20T14:27:57.931Z,4.60
2019-06-20T14:30:31.680Z,5.25
2019-06-20T14:33:03.393Z,5.10
2019-06-20T14:35:35.062Z,5.22
2019-06-20T14:38:06.130Z,5.28
2019-06-20T14:40:37.676Z,4.35
2019-06-20T14:43:08.862Z,4.50
2019-06-20T14:45:40.009Z,4.85
2019-06-20T14:48:11.117Z,5.97
2019-06-20T14:50:43.796Z,5.80
2019-06-20T14:53:15.079Z,5.97
2019-06-20T14:55:49.775Z,6.47
2019-06-20T14:58:24.766Z,6.67
2019-06-20T15:00:57.396Z,6.90
2019-06-20T15:03:32.937Z,7.33
2019-06-20T15:06:11.612Z,6.53
2019-06-20T15:09:03.452Z,8.68
2019-06-20T15:11:30.142Z,9.70
2019-06-20T15:14:02.362Z,12.07
2019-06-20T15:16:34.204Z,9.78
2019-06-20T15:19:07.007Z,10.95
2019-06-20T15:21:40.652Z,11.05
2019-06-20T15:24:12.944Z,8.05
2019-06-20T15:26:45.849Z,8.60
2019-06-20T15:29:18.298Z,9.55
2019-06-20T15:31:53.118Z,7.85
2019-06-20T15:37:48.468Z,6.17
2019-06-20T15:40:25.527Z,6.22
2019-06-20T15:42:58.919Z,5.53
2019-06-20T15:45:30.777Z,5.60
2019-06-20T15:48:02.553Z,6.05
2019-06-20T15:50:35.236Z,6.35
2019-06-20T15:53:08.153Z,5.78
2019-06-20T15:55:42.980Z,6.17
2019-06-20T15:58:16.430Z,5.35
2019-06-20T16:00:48.394Z,5.90
2019-06-20T16:03:24.043Z,5.85
2019-06-20T16:05:57.679Z,5.83
2019-06-20T16:08:31.740Z,5.78
2019-06-20T16:11:06.196Z,5.87
2019-06-20T16:13:40.645Z,8.08
2019-06-20T16:16:12.989Z,8.88
2019-06-20T16:18:45.515Z,9.43
2019-06-20T16:21:16.854Z,6.25
2019-06-20T16:23:48.543Z,5.22
2019-06-20T16:26:19.895Z,5.85
2019-06-20T16:28:52.449Z,6.22
2019-06-20T16:31:27.064Z,7.78
2019-06-20T16:33:58.247Z,7.40
2019-06-20T16:36:30.167Z,8.00
2019-06-20T16:39:02.324Z,7.05
2019-06-20T16:41:33.565Z,7.30
2019-06-20T16:44:06.050Z,7.17
2019-06-20T16:46:37.329Z,7.40
2019-06-20T16:49:09.501Z,6.45
2019-06-20T16:51:43.172Z,6.10
2019-06-20T16:54:15.497Z,10.80
2019-06-20T16:56:49.776Z,8.83
2019-06-20T16:59:23.160Z,7.40
2019-06-20T17:01:54.392Z,6.03
2019-06-20T17:04:27.877Z,6.97
2019-06-20T17:06:59.434Z,5.58
2019-06-20T17:09:30.974Z,6.12
2019-06-20T17:12:02.083Z,5.92
2019-06-20T17:14:33.328Z,5.95
2019-06-20T17:17:04.512Z,5.78
2019-06-20T17:19:36.411Z,6.97
2019-06-20T17:22:07.899Z,5.67
2019-06-20T17:24:39.508Z,5.58
2019-06-20T17:27:10.775Z,6.40
2019-06-20T17:29:42.319Z,5.35
2019-06-20T17:32:14.443Z,5.72
2019-06-20T17:34:45.966Z,4.90
2019-06-20T17:37:17.511Z,5.70
2019-06-20T17:39:48.796Z,4.70
2019-06-20T17:42:19.889Z,4.35
2019-06-20T17:44:51.267Z,4.55
2019-06-20T17:47:22.634Z,4.15
2019-06-20T17:49:54.058Z,4.53
2019-06-20T17:52:25.655Z,4.22
2019-06-20T17:54:57.108Z,4.35
2019-06-20T17:57:29.183Z,4.15
2019-06-20T18:00:00.747Z,3.92
2019-06-20T18:02:32.416Z,4.08
2019-06-20T18:05:04.295Z,4.35
2019-06-20T18:07:35.454Z,4.45
2019-06-20T18:10:10.785Z,3.98
2019-06-20T18:12:42.023Z,4.78
2019-06-20T18:15:14.273Z,4.65
2019-06-20T18:17:45.373Z,3.33
2019-06-20T18:20:17.439Z,3.77
2019-06-20T18:22:48.710Z,3.80
2019-06-20T18:27:08.028Z,3.80
2019-06-20T18:30:53.710Z,3.37
2019-06-20T18:33:24.821Z,3.33
2019-06-20T18:35:56.144Z,2.95
2019-06-20T18:38:27.476Z,3.08
2019-06-20T18:40:58.819Z,4.03
2019-06-20T18:43:29.921Z,4.03
2019-06-20T18:46:01.476Z,5.10
2019-06-20T18:48:33.109Z,5.22
2019-06-20T18:51:06.824Z,5.12
2019-06-20T18:53:38.157Z,5.30
2019-06-20T18:56:11.150Z,6.37
2019-06-20T18:58:42.319Z,5.40
2019-06-20T19:01:13.954Z,5.95
2019-06-20T19:03:46.159Z,6.05
2019-06-20T19:06:18.080Z,6.25
2019-06-20T19:08:49.179Z,6.65
2019-06-20T19:11:20.441Z,7.45
2019-06-20T19:17:00.939Z,6.85
2019-06-20T19:19:46.827Z,6.42
2019-06-20T19:25:22.435Z,6.45
2019-06-20T19:27:54.487Z,6.12
2019-06-20T19:30:42.637Z,6.70
2019-06-20T19:33:14.083Z,5.95
2019-06-20T19:35:45.532Z,6.95
2019-06-20T19:38:18.136Z,7.62
2019-06-20T19:40:51.151Z,6.90
2019-06-20T19:43:25.807Z,7.70
2019-06-20T19:45:58.552Z,6.87
2019-06-20T19:48:30.362Z,7.97
2019-06-20T19:51:02.543Z,16.97
2019-06-20T19:53:34.476Z,19.27
2019-06-20T19:56:06.837Z,16.23
2019-06-20T19:58:38.565Z,13.58
2019-06-20T20:01:10.477Z,14.85
2019-06-20T20:03:41.887Z,11.50
2019-06-20T20:06:15.134Z,10.60
2019-06-20T20:08:46.608Z,13.18
2019-06-20T20:11:17.948Z,12.03
2019-06-20T20:13:50.245Z,10.53
2019-06-20T20:16:22.506Z,9.68
2019-06-20T20:18:54.447Z,9.85
2019-06-20T20:21:26.529Z,9.83
2019-06-20T20:23:59.121Z,9.85
2019-06-20T20:26:31.847Z,11.28
2019-06-20T20:29:03.511Z,17.37
2019-06-20T20:31:35.148Z,15.18
2019-06-20T20:34:07.562Z,12.15
2019-06-20T20:36:41.153Z,9.63
2019-06-20T20:39:12.649Z,8.70
2019-06-20T20:44:46.674Z,8.60
2019-06-20T20:47:20.864Z,8.43
2019-06-20T20:56:16.814Z,8.25
2019-06-20T20:58:48.334Z,10.05
2019-06-20T21:01:29.333Z,8.53
2019-06-20T21:04:01.361Z,9.33
2019-06-20T21:06:32.489Z,10.30
2019-06-20T21:09:03.659Z,11.30
2019-06-20T21:11:35.737Z,10.55
2019-06-20T21:14:06.922Z,11.08
2019-06-20T21:16:38.159Z,11.73
2019-06-20T21:19:10.207Z,12.35
2019-06-20T21:21:41.339Z,16.77
2019-06-20T21:24:14.050Z,16.87
2019-06-20T21:26:49.564Z,15.72
2019-06-20T21:29:18.351Z,15.70
2019-06-20T21:31:49.468Z,14.05
2019-06-20T21:34:20.612Z,14.58
2019-06-20T21:36:51.741Z,14.53
2019-06-20T21:39:22.951Z,15.80
2019-06-20T21:41:54.075Z,15.30
2019-06-20T21:44:25.242Z,14.05
2019-06-20T21:46:56.378Z,14.03
2019-06-20T21:49:27.532Z,13.18
2019-06-20T21:51:58.665Z,13.05
2019-06-20T21:54:29.939Z,12.82
2019-06-20T21:57:01.064Z,14.03
2019-06-20T21:59:32.320Z,14.18
2019-06-20T22:02:03.563Z,14.40
2019-06-20T22:04:34.691Z,12.68
2019-06-20T22:07:05.922Z,12.63
2019-06-20T22:09:37.204Z,12.07
2019-06-20T22:12:08.331Z,11.85
2019-06-20T22:14:39.578Z,11.80
2019-06-20T22:17:10.727Z,13.03
2019-06-20T22:19:41.868Z,12.73
2019-06-20T22:22:13.000Z,13.08
2019-06-20T22:24:44.092Z,14.33
2019-06-20T22:27:15.209Z,13.75
2019-06-20T22:29:46.346Z,13.98
2019-06-20T22:32:17.511Z,14.73
2019-06-20T22:34:48.589Z,14.28
2019-06-20T22:37:19.713Z,15.72
2019-06-20T22:39:50.872Z,15.38
2019-06-20T22:42:22.127Z,14.30
2019-06-20T22:44:53.212Z,13.88
2019-06-20T22:47:24.528Z,14.68
2019-06-20T22:49:55.604Z,15.45
2019-06-20T22:52:26.858Z,14.53
2019-06-20T22:54:57.937Z,13.45
2019-06-20T22:57:29.217Z,13.10
2019-06-20T23:00:00.280Z,12.85
2019-06-20T23:02:31.984Z,13.10
2019-06-20T23:05:03.290Z,13.70
2019-06-20T23:07:34.628Z,13.53
2019-06-20T23:10:11.238Z,13.40
2019-06-20T23:12:42.288Z,13.78
2019-06-20T23:15:14.597Z,14.28
2019-06-20T23:17:45.847Z,15.28
2019-06-20T23:20:17.228Z,16.85
2019-06-20T23:22:48.525Z,15.13
2019-06-20T23:25:19.945Z,14.30
2019-06-20T23:27:51.025Z,15.70
2019-06-20T23:30:24.311Z,16.20
2019-06-20T23:32:55.393Z,15.05
2019-06-20T23:35:26.716Z,16.90
2019-06-20T23:37:57.820Z,15.15
2019-06-20T23:40:29.028Z,15.10
2019-06-20T23:43:00.814Z,15.65
2019-06-20T23:45:31.928Z,17.25
2019-06-20T23:48:03.009Z,17.42
2019-06-20T23:50:34.141Z,18.73
2019-06-20T23:53:05.009Z,22.40
2019-06-20T23:55:36.437Z,23.98
2019-06-20T23:58:07.526Z,23.35
